createdAt,value
2023-03-19T00:02:17.202Z,98745.03
2023-03-19T00:05:05.669Z,98760.53
2023-03-19T00:07:52.294Z,98752.03
2023-03-19T00:10:39.622Z,98754.56
2023-03-19T00:13:26.229Z,98749.34
2023-03-19T00:16:12.632Z,98750.22
2023-03-19T00:18:59.147Z,98770.84
2023-03-19T00:21:45.488Z,98779.56
2023-03-19T00:24:31.912Z,98746.94
2023-03-19T00:27:17.988Z,98774.47
2023-03-19T00:30:07.423Z,98752.97
2023-03-19T00:32:54.081Z,98705.66
2023-03-19T00:35:41.223Z,98766.84
2023-03-19T00:38:28.101Z,98743.66
2023-03-19T00:41:17.302Z,98761.69
2023-03-19T00:44:04.855Z,98747.97
2023-03-19T00:46:51.760Z,98762.75
2023-03-19T00:49:38.070Z,98753.31
2023-03-19T00:52:24.644Z,98742.09
2023-03-19T00:55:11.018Z,98731.63
2023-03-19T00:57:57.415Z,98773.03
2023-03-19T01:00:44.046Z,98748.09
2023-03-19T01:03:30.356Z,98774.72
2023-03-19T01:06:16.883Z,98777.38
2023-03-19T01:09:03.270Z,98758.34
2023-03-19T01:11:49.358Z,98788.47
2023-03-19T01:14:35.886Z,98785.19
2023-03-19T01:17:22.933Z,98758.47
2023-03-19T01:20:13.845Z,98788.59
2023-03-19T01:23:01.510Z,98768.03
2023-03-19T01:25:48.297Z,98802.50
2023-03-19T01:28:34.805Z,98802.50
2023-03-19T01:31:21.870Z,98817.13
2023-03-19T01:34:18.758Z,98828.28
2023-03-19T01:37:09.432Z,98794.59
2023-03-19T01:39:56.608Z,98818.69
2023-03-19T01:43:12.438Z,98824.75
2023-03-19T01:46:36.453Z,98809.38
2023-03-19T01:49:45.740Z,98849.06
2023-03-19T01:52:39.158Z,98816.34
2023-03-19T01:55:54.898Z,98851.59
2023-03-19T01:59:01.034Z,98848.06
2023-03-19T02:01:58.447Z,98835.25
2023-03-19T02:04:47.546Z,98837.66
2023-03-19T02:07:36.230Z,98847.09
2023-03-19T02:10:23.105Z,98790.28
2023-03-19T02:13:09.454Z,98830.00
2023-03-19T02:15:56.769Z,98814.41
2023-03-19T02:18:44.252Z,98829.91
2023-03-19T02:21:30.533Z,98804.94
2023-03-19T02:24:26.341Z,98821.41
2023-03-19T02:27:34.366Z,98830.88
2023-03-19T02:30:29.459Z,98812.00
2023-03-19T02:33:18.985Z,98807.78
2023-03-19T02:36:09.168Z,98828.50
2023-03-19T02:38:58.753Z,98830.22
2023-03-19T02:41:46.709Z,98799.16
2023-03-19T02:44:33.404Z,98794.88
2023-03-19T02:47:19.803Z,98813.72
2023-03-19T02:50:06.652Z,98829.22
2023-03-19T02:52:53.287Z,98801.56
2023-03-19T02:55:39.696Z,98806.72
2023-03-19T02:58:26.152Z,98808.44
2023-03-19T03:01:12.696Z,98808.34
2023-03-19T03:03:59.309Z,98839.22
2023-03-19T03:06:46.382Z,98793.47
2023-03-19T03:09:33.113Z,98820.19
2023-03-19T03:12:19.457Z,98837.31
2023-03-19T03:15:08.479Z,98834.66
2023-03-19T03:17:56.439Z,98806.22
2023-03-19T03:20:43.301Z,98841.47
2023-03-19T03:23:29.940Z,98843.06
2023-03-19T03:26:16.228Z,98845.56
2023-03-19T03:29:02.599Z,98854.16
2023-03-19T03:31:49.136Z,98826.47
2023-03-19T03:34:35.515Z,98854.94
2023-03-19T03:37:21.840Z,98848.78
2023-03-19T03:40:09.109Z,98857.47
2023-03-19T03:42:56.404Z,98860.78
2023-03-19T03:45:44.435Z,98814.41
2023-03-19T03:48:31.385Z,98854.97
2023-03-19T03:51:19.061Z,98860.16
2023-03-19T03:54:05.911Z,98856.72
2023-03-19T03:56:52.482Z,98839.41
2023-03-19T03:59:39.262Z,98870.47
2023-03-19T04:02:27.463Z,98876.56
2023-03-19T04:05:14.100Z,98867.16
2023-03-19T04:08:01.282Z,98865.44
2023-03-19T04:10:47.869Z,98867.06
2023-03-19T04:13:36.868Z,98879.97
2023-03-19T04:16:24.722Z,98852.44
2023-03-19T04:19:11.460Z,98877.44
2023-03-19T04:21:59.553Z,98884.34
2023-03-19T04:24:46.838Z,98850.81
2023-03-19T04:27:34.376Z,98869.13
2023-03-19T04:30:20.956Z,98879.38
2023-03-19T04:33:07.301Z,98851.75
2023-03-19T04:35:55.501Z,98805.25
2023-03-19T04:38:42.255Z,98860.44
2023-03-19T04:41:29.758Z,98869.94
2023-03-19T04:44:29.280Z,98861.38
2023-03-19T04:47:15.586Z,98867.47
2023-03-19T04:50:13.817Z,98874.28
2023-03-19T04:53:02.730Z,98862.19
2023-03-19T04:55:49.211Z,98842.41
2023-03-19T04:58:37.501Z,98858.91
2023-03-19T05:01:24.440Z,98859.78
2023-03-19T05:04:18.703Z,98878.78
2023-03-19T05:07:06.251Z,98885.63
2023-03-19T05:09:54.269Z,98866.50
2023-03-19T05:12:41.492Z,98892.28
2023-03-19T05:15:29.637Z,98869.81
2023-03-19T05:18:21.487Z,98909.41
2023-03-19T05:21:12.250Z,98907.75
2023-03-19T05:23:59.220Z,98886.28
2023-03-19T05:26:46.386Z,98905.31
2023-03-19T05:29:51.815Z,98891.53
2023-03-19T05:32:46.554Z,98874.16
2023-03-19T05:35:41.226Z,98898.25
2023-03-19T05:38:39.313Z,98881.88
2023-03-19T05:41:32.123Z,98907.81
2023-03-19T05:44:22.492Z,98915.63
2023-03-19T05:47:20.425Z,98898.28
2023-03-19T05:50:12.267Z,98913.78
2023-03-19T05:53:04.122Z,98896.69
2023-03-19T05:55:53.095Z,98869.16
2023-03-19T05:58:39.851Z,98913.97
2023-03-19T06:01:26.711Z,98921.75
2023-03-19T06:04:14.621Z,98897.56
2023-03-19T06:07:01.128Z,98906.19
2023-03-19T06:09:47.866Z,98934.78
2023-03-19T06:12:34.154Z,98900.44
2023-03-19T06:15:43.398Z,98927.97
2023-03-19T06:18:47.208Z,98922.81
2023-03-19T06:21:34.949Z,98934.91
2023-03-19T06:24:23.655Z,98936.66
2023-03-19T06:27:10.122Z,98937.50
2023-03-19T06:29:57.232Z,98918.63
2023-03-19T06:32:50.511Z,98940.22
2023-03-19T06:35:37.252Z,98936.88
2023-03-19T06:38:23.653Z,98936.91
2023-03-19T06:41:10.887Z,98919.63
2023-03-19T06:43:57.830Z,98943.75
2023-03-19T06:46:44.481Z,98940.31
2023-03-19T06:49:30.704Z,98829.06
2023-03-19T06:52:17.182Z,98917.91
2023-03-19T06:55:04.344Z,98911.84
2023-03-19T06:57:51.308Z,98954.13
2023-03-19T07:00:37.579Z,98932.72
2023-03-19T07:03:23.945Z,98915.47
2023-03-19T07:06:10.380Z,98926.63
2023-03-19T07:08:57.099Z,98942.19
2023-03-19T07:11:43.268Z,98953.47
2023-03-19T07:14:29.416Z,98946.59
2023-03-19T07:17:15.639Z,98945.78
2023-03-19T07:20:02.131Z,98942.38
2023-03-19T07:22:51.444Z,98964.81
2023-03-19T07:25:37.700Z,98943.28
2023-03-19T07:28:24.365Z,98960.50
2023-03-19T07:31:10.860Z,98963.13
2023-03-19T07:33:57.408Z,98959.69
2023-03-19T07:36:43.587Z,98947.63
2023-03-19T07:39:30.116Z,98943.34
2023-03-19T07:42:16.627Z,98972.59
2023-03-19T07:45:04.217Z,98941.53
2023-03-19T07:47:51.590Z,98970.81
2023-03-19T07:50:38.231Z,98969.78
2023-03-19T07:53:24.764Z,98959.38
2023-03-19T07:56:12.642Z,98969.53
2023-03-19T07:58:59.850Z,98937.66
2023-03-19T08:01:46.820Z,98956.28
2023-03-19T08:04:33.521Z,98963.16
2023-03-19T08:07:20.120Z,98967.56
2023-03-19T08:10:08.700Z,98964.97
2023-03-19T08:12:55.134Z,98955.53
2023-03-19T08:15:41.614Z,98963.00
2023-03-19T08:18:28.125Z,98962.13
2023-03-19T08:21:14.275Z,98935.41
2023-03-19T08:24:03.065Z,98948.34
2023-03-19T08:26:50.891Z,98946.72
2023-03-19T08:29:37.403Z,98946.03
2023-03-19T08:32:24.663Z,98941.81
2023-03-19T08:35:11.488Z,98965.03
2023-03-19T08:37:58.212Z,98979.63
2023-03-19T08:40:44.751Z,98958.94
2023-03-19T08:43:32.647Z,98973.47
2023-03-19T08:46:19.389Z,98937.03
2023-03-19T08:49:05.950Z,98936.06
2023-03-19T08:51:52.243Z,98958.03
2023-03-19T08:54:38.664Z,98959.03
2023-03-19T08:57:25.144Z,98921.69
2023-03-19T09:00:12.548Z,98958.09
2023-03-19T09:02:58.875Z,98972.22
2023-03-19T09:05:45.458Z,98981.09
2023-03-19T09:08:32.799Z,98975.84
2023-03-19T09:11:19.449Z,98950.59
2023-03-19T09:14:07.162Z,98977.53
2023-03-19T09:16:53.617Z,98974.22
2023-03-19T09:19:39.861Z,98974.00
2023-03-19T09:22:26.019Z,98979.28
2023-03-19T09:25:12.701Z,98965.75
2023-03-19T09:27:59.193Z,98966.66
2023-03-19T09:30:47.792Z,98981.28
2023-03-19T09:33:34.165Z,98945.31
2023-03-19T09:36:20.694Z,98984.78
2023-03-19T09:39:08.318Z,98965.59
2023-03-19T09:42:06.953Z,98951.31
2023-03-19T09:44:54.097Z,98984.34
2023-03-19T09:47:41.873Z,98976.53
2023-03-19T09:50:29.630Z,98934.47
2023-03-19T09:53:59.393Z,98973.06
2023-03-19T09:56:45.986Z,98943.78
2023-03-19T09:59:33.185Z,98973.69
2023-03-19T10:02:41.800Z,98976.38
2023-03-19T10:05:45.419Z,98971.03
2023-03-19T10:08:46.214Z,98957.25
2023-03-19T10:12:02.274Z,98974.31
2023-03-19T10:15:06.415Z,98948.66
2023-03-19T10:18:14.431Z,98981.28
2023-03-19T10:21:04.136Z,98978.50
2023-03-19T10:24:16.563Z,98966.84
2023-03-19T10:27:17.089Z,98960.47
2023-03-19T10:30:13.289Z,98960.22
2023-03-19T10:33:28.941Z,98923.16
2023-03-19T10:36:17.129Z,98949.69
2023-03-19T10:39:07.552Z,98950.34
2023-03-19T10:42:10.401Z,98947.50
2023-03-19T10:45:05.802Z,98938.81
2023-03-19T10:47:53.024Z,98931.59
2023-03-19T10:51:06.642Z,98909.22
2023-03-19T10:53:55.938Z,98919.97
2023-03-19T10:56:46.565Z,98938.63
2023-03-19T10:59:37.315Z,98939.06
2023-03-19T11:02:30.994Z,98932.56
2023-03-19T11:05:31.680Z,98928.69
2023-03-19T11:08:34.815Z,98895.41
2023-03-19T11:11:49.119Z,98925.44
2023-03-19T11:14:44.531Z,98871.28
2023-03-19T11:18:01.591Z,98917.47
2023-03-19T11:20:55.528Z,98915.56
2023-03-19T11:23:42.704Z,98916.31
2023-03-19T11:26:29.351Z,98908.81
2023-03-19T11:29:16.238Z,98907.31
2023-03-19T11:32:21.652Z,98908.03
2023-03-19T11:35:17.822Z,98905.75
2023-03-19T11:38:05.057Z,98887.41
2023-03-19T11:41:27.237Z,98904.75
2023-03-19T11:44:20.634Z,98896.00
2023-03-19T11:47:24.743Z,98908.41
2023-03-19T11:50:27.424Z,98899.75
2023-03-19T11:53:23.728Z,98908.38
2023-03-19T11:56:19.548Z,98902.47
2023-03-19T11:59:18.065Z,98901.28
2023-03-19T12:02:30.436Z,98908.25
2023-03-19T12:05:19.416Z,98912.13
2023-03-19T12:08:28.802Z,98914.91
2023-03-19T12:11:36.296Z,98896.84
2023-03-19T12:14:47.452Z,98922.94
2023-03-19T12:17:52.338Z,98945.72
2023-03-19T12:20:41.892Z,98927.84
2023-03-19T12:24:04.093Z,98952.75
2023-03-19T12:27:04.590Z,98961.22
2023-03-19T12:30:16.112Z,98944.16
2023-03-19T12:33:36.100Z,98940.03
2023-03-19T12:36:28.934Z,98947.59
2023-03-19T12:39:22.495Z,98918.06
2023-03-19T12:42:15.280Z,98904.75
2023-03-19T12:45:04.751Z,98939.28
2023-03-19T12:47:57.333Z,98929.72
2023-03-19T12:50:49.951Z,98926.38
2023-03-19T12:53:45.562Z,98938.13
2023-03-19T12:56:54.231Z,98927.53
2023-03-19T12:59:53.913Z,98910.66
2023-03-19T13:03:07.643Z,98922.97
2023-03-19T13:06:08.488Z,98924.09
2023-03-19T13:09:14.512Z,98926.03
2023-03-19T13:12:05.120Z,98914.00
2023-03-19T13:15:14.357Z,98917.72
2023-03-19T13:18:06.810Z,98909.78
2023-03-19T13:21:15.604Z,98915.97
2023-03-19T13:24:15.514Z,98922.38
2023-03-19T13:27:03.890Z,98901.91
2023-03-19T13:30:01.832Z,98921.56
2023-03-19T13:32:51.087Z,98906.94
2023-03-19T13:35:43.973Z,98917.81
2023-03-19T13:38:47.804Z,98935.84
2023-03-19T13:41:39.071Z,98951.22
2023-03-19T13:44:39.426Z,98951.59
2023-03-19T13:47:25.572Z,98941.91
2023-03-19T13:50:21.495Z,98940.88
2023-03-19T13:53:22.160Z,98942.59
2023-03-19T13:56:28.512Z,98939.06
2023-03-19T13:59:15.379Z,98941.06
2023-03-19T14:02:20.857Z,98938.44
2023-03-19T14:05:16.876Z,98879.78
2023-03-19T14:08:18.399Z,98934.50
2023-03-19T14:11:05.953Z,98934.09
2023-03-19T14:13:54.080Z,98875.28
2023-03-19T14:16:46.672Z,98896.38
2023-03-19T14:19:41.466Z,98922.94
2023-03-19T14:23:14.523Z,98920.16
2023-03-19T14:26:16.332Z,98920.16
2023-03-19T14:29:05.876Z,98908.31
2023-03-19T14:31:58.090Z,98926.72
2023-03-19T14:34:46.635Z,98923.44
2023-03-19T14:37:46.644Z,98919.25
2023-03-19T14:40:42.916Z,98924.69
2023-03-19T14:44:06.204Z,98916.22
2023-03-19T14:47:19.523Z,98927.63
2023-03-19T14:50:27.372Z,98940.56
2023-03-19T14:53:18.447Z,98919.13
2023-03-19T14:56:20.912Z,98929.00
2023-03-19T14:59:13.639Z,98893.59
2023-03-19T15:01:59.976Z,98936.00
2023-03-19T15:04:48.231Z,98942.16
2023-03-19T15:07:42.851Z,98918.16
2023-03-19T15:10:35.896Z,98944.75
2023-03-19T15:13:29.492Z,98956.81
2023-03-19T15:16:33.001Z,98956.00
2023-03-19T15:19:26.374Z,98923.31
2023-03-19T15:22:33.802Z,98915.56
2023-03-19T15:25:20.412Z,98899.19
2023-03-19T15:28:13.926Z,98922.53
2023-03-19T15:31:14.187Z,98951.72
2023-03-19T15:34:18.826Z,98950.84
2023-03-19T15:37:10.526Z,98926.78
2023-03-19T15:39:59.672Z,98949.13
2023-03-19T15:42:47.938Z,98949.13
2023-03-19T15:45:35.063Z,98923.34
2023-03-19T15:48:38.936Z,98963.03
2023-03-19T15:51:26.943Z,98966.44
2023-03-19T15:54:13.575Z,98957.84
2023-03-19T15:56:59.881Z,98965.63
2023-03-19T15:59:46.871Z,98938.94
2023-03-19T16:02:34.774Z,98978.59
2023-03-19T16:05:29.544Z,98991.50
2023-03-19T16:08:25.331Z,99008.75
2023-03-19T16:11:33.504Z,99004.44
2023-03-19T16:14:39.638Z,99008.78
2023-03-19T16:17:34.837Z,98966.53
2023-03-19T16:20:21.269Z,98954.50
2023-03-19T16:23:17.428Z,98984.66
2023-03-19T16:26:09.827Z,98975.19
2023-03-19T16:29:06.233Z,99001.88
2023-03-19T16:32:01.200Z,99001.88
2023-03-19T16:34:51.689Z,99013.94
2023-03-19T16:37:41.550Z,99001.03
2023-03-19T16:40:39.114Z,99009.63
2023-03-19T16:43:34.182Z,99019.97
2023-03-19T16:46:20.940Z,99027.66
2023-03-19T16:49:07.672Z,99031.97
2023-03-19T16:51:53.950Z,99030.25
2023-03-19T16:54:40.378Z,99027.69
2023-03-19T16:57:27.430Z,99014.78
2023-03-19T17:00:14.603Z,99026.03
2023-03-19T17:03:01.442Z,98961.41
2023-03-19T17:05:48.528Z,99039.84
2023-03-19T17:08:34.796Z,99043.28
2023-03-19T17:11:31.157Z,99040.69
2023-03-19T17:14:20.961Z,99055.34
2023-03-19T17:17:19.876Z,99047.56
2023-03-19T17:20:10.121Z,99044.09
2023-03-19T17:22:56.424Z,99059.63
2023-03-19T17:25:44.997Z,99043.22
2023-03-19T17:28:32.415Z,99044.91
2023-03-19T17:31:39.007Z,99076.78
2023-03-19T17:34:27.612Z,99080.22
2023-03-19T17:37:14.946Z,99063.91
2023-03-19T17:40:01.397Z,99069.88
2023-03-19T17:42:48.770Z,99078.50
2023-03-19T17:45:35.547Z,99050.88
2023-03-19T17:48:25.732Z,99084.50
2023-03-19T17:51:12.084Z,99051.72
2023-03-19T17:53:58.800Z,99086.22
2023-03-19T17:56:45.099Z,99053.44
2023-03-19T17:59:31.317Z,99092.25
2023-03-19T18:02:26.485Z,99093.97
2023-03-19T18:05:24.873Z,99061.19
2023-03-19T18:08:16.917Z,99099.16
2023-03-19T18:11:02.951Z,99049.09
2023-03-19T18:13:49.508Z,99075.03
2023-03-19T18:16:36.051Z,99083.69
2023-03-19T18:19:30.771Z,99104.41
2023-03-19T18:22:18.960Z,99079.28
2023-03-19T18:25:05.578Z,99072.34
2023-03-19T18:27:53.027Z,99019.66
2023-03-19T18:30:41.301Z,99066.28
2023-03-19T18:33:30.195Z,99098.22
2023-03-19T18:36:23.918Z,99099.91
2023-03-19T18:39:16.026Z,99107.78
2023-03-19T18:42:02.153Z,99113.84
2023-03-19T18:44:48.499Z,99095.66
2023-03-19T18:47:35.854Z,99099.91
2023-03-19T18:50:25.090Z,99079.13
2023-03-19T18:53:11.421Z,99129.16
2023-03-19T18:55:57.928Z,99120.44
2023-03-19T18:58:44.216Z,99127.25
2023-03-19T19:01:30.870Z,99107.25
2023-03-19T19:04:17.400Z,99130.38
2023-03-19T19:07:03.833Z,99144.91
2023-03-19T19:09:50.605Z,99146.69
2023-03-19T19:12:40.329Z,99134.47
2023-03-19T19:15:33.484Z,99121.59
2023-03-19T19:18:22.941Z,99153.38
2023-03-19T19:21:10.408Z,99131.56
2023-03-19T19:23:57.001Z,99132.28
2023-03-19T19:26:45.593Z,99128.72
2023-03-19T19:29:32.453Z,99153.16
2023-03-19T19:32:27.416Z,99163.28
2023-03-19T19:35:25.163Z,99164.91
2023-03-19T19:38:13.018Z,99161.38
2023-03-19T19:41:00.284Z,99148.28
2023-03-19T19:43:47.536Z,99128.13
2023-03-19T19:46:34.129Z,99135.84
2023-03-19T19:49:21.653Z,99125.31
2023-03-19T19:52:17.164Z,99170.13
2023-03-19T19:55:03.837Z,99149.22
2023-03-19T19:57:50.956Z,99174.22
2023-03-19T20:00:37.361Z,99177.56
2023-03-19T20:03:26.626Z,99177.63
2023-03-19T20:06:14.230Z,99173.97
2023-03-19T20:09:00.474Z,99143.94
2023-03-19T20:11:46.818Z,99192.88
2023-03-19T20:14:32.992Z,99171.28
2023-03-19T20:17:23.400Z,99194.50
2023-03-19T20:20:23.717Z,99204.72
2023-03-19T20:23:10.856Z,99163.03
2023-03-19T20:25:58.180Z,99174.91
2023-03-19T20:28:45.670Z,99211.22
2023-03-19T20:31:32.906Z,99187.63
2023-03-19T20:34:32.644Z,99195.28
2023-03-19T20:37:24.775Z,99183.91
2023-03-19T20:40:12.650Z,99219.53
2023-03-19T20:43:00.825Z,99227.19
2023-03-19T20:45:47.326Z,99199.41
2023-03-19T20:48:34.415Z,99227.84
2023-03-19T20:51:24.783Z,99201.75
2023-03-19T20:54:11.306Z,99181.66
2023-03-19T20:56:58.209Z,99214.38
2023-03-19T21:04:20.234Z,99240.81
2023-03-19T21:07:29.610Z,99230.44
2023-03-19T21:10:45.475Z,99227.78
2023-03-19T21:13:32.025Z,99240.47
2023-03-19T21:16:23.399Z,99250.69
2023-03-19T21:19:09.861Z,99243.69
2023-03-19T21:21:57.125Z,99254.50
2023-03-19T21:24:43.853Z,99258.00
2023-03-19T21:27:31.730Z,99253.91
2023-03-19T21:30:19.999Z,99258.91
2023-03-19T21:33:18.696Z,99259.06
2023-03-19T21:36:06.704Z,99249.38
2023-03-19T21:38:53.372Z,99249.59
2023-03-19T21:41:39.934Z,99256.56
2023-03-19T21:44:29.577Z,99280.03
2023-03-19T21:47:21.231Z,99275.78
2023-03-19T21:50:14.426Z,99248.06
2023-03-19T21:53:01.763Z,99272.53
2023-03-19T21:55:50.705Z,99286.34
2023-03-19T21:58:37.148Z,99260.06
2023-03-19T22:01:25.253Z,99291.50
2023-03-19T22:04:11.879Z,99287.16
2023-03-19T22:06:58.615Z,99293.09
2023-03-19T22:09:46.346Z,99292.22
2023-03-19T22:12:34.204Z,99272.34
2023-03-19T22:15:34.749Z,99302.78
2023-03-19T22:18:22.009Z,99307.97
2023-03-19T22:21:13.635Z,99311.56
2023-03-19T22:24:00.234Z,99278.63
2023-03-19T22:26:50.925Z,99295.06
2023-03-19T22:29:37.056Z,99313.31
2023-03-19T22:32:23.637Z,99317.31
2023-03-19T22:35:16.552Z,99311.53
2023-03-19T22:38:02.775Z,99318.66
2023-03-19T22:40:52.542Z,99321.13
2023-03-19T22:43:38.964Z,99330.63
2023-03-19T22:46:25.610Z,99286.66
2023-03-19T22:49:15.330Z,99326.31
2023-03-19T22:52:02.245Z,99332.22
2023-03-19T22:54:52.980Z,99328.16
2023-03-19T22:57:39.739Z,99324.59
2023-03-19T23:00:26.363Z,99291.56
2023-03-19T23:03:19.022Z,99323.63
2023-03-19T23:06:27.100Z,99323.81
2023-03-19T23:09:22.756Z,99322.03
2023-03-19T23:12:11.964Z,99321.06
2023-03-19T23:14:58.067Z,99309.91
2023-03-19T23:17:46.297Z,99310.81
2023-03-19T23:20:32.812Z,99307.94
2023-03-19T23:23:19.332Z,99315.72
2023-03-19T23:26:05.898Z,99312.22
2023-03-19T23:28:53.323Z,99306.94
2023-03-19T23:31:39.644Z,99269.69
2023-03-19T23:34:27.082Z,99302.72
2023-03-19T23:37:13.417Z,99301.75
2023-03-19T23:40:00.630Z,99287.81
2023-03-19T23:42:50.661Z,99304.44
2023-03-19T23:45:40.505Z,99308.81
2023-03-19T23:48:40.198Z,99306.47
2023-03-19T23:51:26.898Z,99309.06
2023-03-19T23:54:34.307Z,99306.41
2023-03-19T23:57:23.191Z,99308.06
